Time;durP1;ratioP1;P1;durP2;ratioP2;P2;SDS_P1;SDS_P2;PMS_P1;PMS_P2;Temp;Humidity;BMP_temperature;BMP_pressure;BME280_temperature;BME280_humidity;BME280_pressure;Samples;Min_cycle;Max_cycle;Signal;HPM_P1;HPM_P2
2022/09/27 00:00:15;;;;;;;8.75;5.10;;;;;;;17.22;100.00;-24296.84;5093239;28;20192;-79
2022/09/27 00:02:40;;;;;;;8.75;5.65;;;;;;;16.81;100.00;-24285.41;5093430;28;20182;-74
2022/09/27 00:05:06;;;;;;;7.15;4.70;;;;;;;16.48;100.00;-24276.31;5074699;28;20169;-77
2022/09/27 00:07:32;;;;;;;9.85;5.38;;;;;;;16.97;100.00;-24289.88;5074850;28;20634;-78
2022/09/27 00:09:57;;;;;;;7.47;5.00;;;;;;;16.96;100.00;-24289.59;5093034;28;20169;-77
2022/09/27 00:12:23;;;;;;;7.65;4.88;;;;;;;16.93;100.00;-24288.75;5092741;28;20628;-79
2022/09/27 00:14:48;;;;;;;10.60;5.40;;;;;;;17.00;100.00;-24290.72;5093327;28;20222;-78
2022/09/27 00:17:13;;;;;;;10.40;5.85;;;;;;;16.62;100.00;-24280.22;5074898;28;20269;-77
2022/09/27 00:19:39;;;;;;;8.60;5.20;;;;;;;16.25;100.00;-24270.16;5092844;28;20238;-76
2022/09/27 00:22:04;;;;;;;7.55;5.15;;;;;;;16.50;100.00;-24276.88;5092450;28;20224;-79
2022/09/27 00:24:30;;;;;;;7.88;5.70;;;;;;;16.49;100.00;-24276.72;5093905;28;20161;-79
2022/09/27 00:26:56;;;;;;;8.85;5.30;;;;;;;16.48;100.00;-24276.31;5094397;28;20252;-76
2022/09/27 00:29:21;;;;;;;6.97;4.75;;;;;;;16.92;100.00;-24288.47;5092180;28;20665;-78
2022/09/27 00:31:47;;;;;;;7.10;4.97;;;;;;;16.98;100.00;-24290.16;5092379;28;20253;-78
2022/09/27 00:34:20;;;;;;;6.25;4.47;;;;;;;16.88;100.00;-24287.50;5092697;28;20173;-80
2022/09/27 00:36:46;;;;;;;8.20;4.82;;;;;;;16.91;100.00;-24288.19;5092598;28;20170;-77
2022/09/27 00:39:12;;;;;;;9.32;4.72;;;;;;;16.90;100.00;-24287.91;5090769;28;20195;-79
2022/09/27 00:41:37;;;;;;;8.02;5.05;;;;;;;16.95;100.00;-24289.31;5095260;28;20176;-79
2022/09/27 00:44:25;;;;;;;7.32;4.68;;;;;;;17.27;100.00;-24298.25;5094553;28;20185;-77
2022/09/27 00:47:01;;;;;;;5.82;4.30;;;;;;;17.13;100.00;-24294.34;5091910;28;20176;-79
2022/09/27 00:49:59;;;;;;;7.88;4.78;;;;;;;16.98;100.00;-24290.28;5091978;28;20199;-74
2022/09/27 00:52:35;;;;;;;5.47;3.95;;;;;;;17.28;100.00;-24298.53;5091380;28;20231;-76
2022/09/27 00:55:06;;;;;;;6.85;4.38;;;;;;;17.08;100.00;-24292.94;5092377;28;20256;-77
2022/09/27 00:57:31;;;;;;;7.32;4.45;;;;;;;16.80;100.00;-24285.25;5092195;28;20260;-76
2022/09/27 01:00:04;;;;;;;7.75;4.95;;;;;;;16.98;100.00;-24290.28;5091801;28;20492;-79
2022/09/27 01:02:30;;;;;;;8.55;5.05;;;;;;;17.04;100.00;-24291.97;5092380;28;20252;-78
2022/09/27 01:04:55;;;;;;;9.40;5.40;;;;;;;16.95;100.00;-24289.31;5092211;28;20260;-78
2022/09/27 01:07:21;;;;;;;8.10;4.65;;;;;;;16.62;100.00;-24280.38;5091679;28;20172;-75
2022/09/27 01:09:47;;;;;;;6.88;4.53;;;;;;;16.63;100.00;-24280.66;5090019;28;20177;-79
2022/09/27 01:12:24;;;;;;;8.52;5.00;;;;;;;17.27;100.00;-24298.25;5087495;28;20197;-78
2022/09/27 01:15:15;;;;;;;7.38;4.65;;;;;;;17.13;100.00;-24294.34;5100297;28;20190;-75
2022/09/27 01:18:02;;;;;;;7.07;4.47;;;;;;;17.05;100.00;-24292.09;5092225;28;20322;-77
2022/09/27 01:20:57;;;;;;;7.32;3.92;;;;;;;17.18;100.00;-24295.72;5090687;28;20177;-78
2022/09/27 01:23:38;;;;;;;5.35;3.83;;;;;;;17.09;100.00;-24293.34;5092135;28;20236;-77
2022/09/27 01:26:34;;;;;;;6.57;3.80;;;;;;;17.10;100.00;-24293.50;5090614;28;20162;-76
2022/09/27 01:29:32;;;;;;;5.70;3.78;;;;;;;17.12;100.00;-24294.19;5089873;28;20177;-80
2022/09/27 01:32:21;;;;;;;5.55;3.67;;;;;;;17.13;100.00;-24294.47;5048587;28;20205;-75
2022/09/27 01:35:03;;;;;;;6.30;3.70;;;;;;;17.13;100.00;-24294.34;5090924;28;20242;-77
2022/09/27 01:37:44;;;;;;;6.45;3.70;;;;;;;16.57;100.00;-24278.81;5091342;28;20184;-78
2022/09/27 01:40:16;;;;;;;6.78;3.92;;;;;;;17.08;100.00;-24292.94;5091201;28;20169;-76
2022/09/27 01:43:03;;;;;;;4.28;3.30;;;;;;;16.79;100.00;-24284.97;5090903;28;20180;-78
2022/09/27 01:45:45;;;;;;;5.65;3.63;;;;;;;17.16;100.00;-24295.31;5089737;28;20200;-76
2022/09/27 01:48:17;;;;;;;6.88;3.95;;;;;;;16.78;100.00;-24284.84;5091593;28;20557;-78
2022/09/27 01:50:52;;;;;;;6.20;3.90;;;;;;;17.06;100.00;-24292.53;5073188;28;20189;-77
2022/09/27 01:53:26;;;;;;;6.78;3.60;;;;;;;16.87;100.00;-24287.06;5089777;28;20208;-77
2022/09/27 01:55:54;;;;;;;4.90;3.78;;;;;;;16.77;100.00;-24284.41;5090758;28;20165;-80
2022/09/27 01:58:40;;;;;;;5.05;3.67;;;;;;;16.92;100.00;-24288.47;5089892;28;20162;-78
2022/09/27 02:01:08;;;;;;;4.55;3.20;;;;;;;16.72;100.00;-24283.03;5091728;28;20242;-79
2022/09/27 02:03:38;;;;;;;5.38;3.70;;;;;;;16.73;100.00;-24283.44;5092305;28;20173;-75
2022/09/27 02:06:29;;;;;;;5.80;3.45;;;;;;;17.09;100.00;-24293.22;5090762;28;20223;-77
2022/09/27 02:09:07;;;;;;;5.72;3.58;;;;;;;16.88;100.00;-24287.50;5091844;28;20165;-75
2022/09/27 02:11:37;;;;;;;5.57;3.53;;;;;;;16.99;100.00;-24290.44;5091573;28;20672;-77
2022/09/27 02:14:11;;;;;;;6.10;3.55;;;;;;;16.65;100.00;-24281.22;5091030;28;20209;-77
2022/09/27 02:16:58;;;;;;;6.57;4.00;;;;;;;16.96;100.00;-24289.72;5073098;28;20555;-78
2022/09/27 02:19:35;;;;;;;5.07;3.53;;;;;;;16.78;100.00;-24284.69;5093411;28;20168;-80
2022/09/27 02:22:16;;;;;;;4.63;3.40;;;;;;;16.99;100.00;-24290.44;5095348;28;20291;-79
2022/09/27 02:24:52;;;;;;;5.72;3.75;;;;;;;16.86;100.00;-24286.78;5094643;28;20559;-78
2022/09/27 02:27:25;;;;;;;5.05;3.38;;;;;;;16.97;100.00;-24290.00;5095313;28;20184;-76
2022/09/27 02:30:12;;;;;;;6.78;3.83;;;;;;;16.91;100.00;-24288.34;5094738;28;20154;-78
2022/09/27 02:32:38;;;;;;;8.20;3.95;;;;;;;16.64;100.00;-24280.78;5094914;28;20659;-78
2022/09/27 02:35:12;;;;;;;7.55;4.28;;;;;;;16.72;100.00;-24283.16;5094610;28;20169;-78
2022/09/27 02:37:38;;;;;;;4.25;3.08;;;;;;;16.87;100.00;-24287.06;5094920;28;20177;-79
2022/09/27 02:40:04;;;;;;;4.97;3.50;;;;;;;16.66;100.00;-24281.50;5094433;28;20177;-78
2022/09/27 02:42:31;;;;;;;5.93;3.65;;;;;;;16.39;100.00;-24273.78;5094675;28;20197;-78
2022/09/27 02:44:57;;;;;;;5.50;3.65;;;;;;;16.42;100.00;-24274.78;5094053;28;20181;-75
2022/09/27 02:47:37;;;;;;;5.95;3.63;;;;;;;16.81;100.00;-24285.41;5094825;28;20173;-79
2022/09/27 02:50:27;;;;;;;5.18;3.75;;;;;;;16.78;100.00;-24284.84;5076847;28;20191;-78
2022/09/27 02:53:11;;;;;;;5.70;3.72;;;;;;;16.69;100.00;-24282.31;5094409;28;20660;-76
2022/09/27 02:56:01;;;;;;;6.07;4.15;;;;;;;16.63;100.00;-24280.50;5094491;28;20260;-75
2022/09/27 02:58:32;;;;;;;6.32;4.28;;;;;;;16.65;100.00;-24281.22;5094083;28;20695;-77
2022/09/27 03:01:21;;;;;;;6.05;3.78;;;;;;;16.47;100.00;-24276.03;5094816;28;20174;-77
2022/09/27 03:04:11;;;;;;;7.95;4.40;;;;;;;16.52;100.00;-24277.44;5094400;28;20573;-77
2022/09/27 03:06:41;;;;;;;6.20;4.22;;;;;;;16.51;100.00;-24277.28;5096431;28;20183;-76
2022/09/27 03:09:16;;;;;;;8.02;4.45;;;;;;;16.18;100.00;-24268.22;5096041;28;20171;-75
2022/09/27 03:11:42;;;;;;;5.35;4.03;;;;;;;16.45;100.00;-24275.63;5092470;28;20326;-77
2022/09/27 03:14:08;;;;;;;6.97;4.47;;;;;;;16.40;100.00;-24274.22;5094097;28;20233;-77
2022/09/27 03:16:33;;;;;;;7.25;4.72;;;;;;;16.46;100.00;-24275.88;5094306;28;20177;-74
2022/09/27 03:18:59;;;;;;;7.22;4.40;;;;;;;16.28;100.00;-24271.00;5093900;28;20169;-79
2022/09/27 03:21:24;;;;;;;6.38;4.45;;;;;;;16.07;100.00;-24265.00;5073323;28;20213;-79
2022/09/27 03:23:50;;;;;;;8.85;5.32;;;;;;;16.24;100.00;-24269.75;5078891;28;20180;-81
2022/09/27 03:26:15;;;;;;;7.47;4.78;;;;;;;16.23;100.00;-24269.47;5079265;28;20619;-77
2022/09/27 03:28:41;;;;;;;8.07;4.80;;;;;;;16.38;100.00;-24273.50;5084128;28;20285;-80
2022/09/27 03:31:06;;;;;;;6.20;4.28;;;;;;;16.11;100.00;-24266.25;5079462;28;20636;-76
2022/09/27 03:33:32;;;;;;;7.03;4.50;;;;;;;16.41;100.00;-24274.34;5078193;28;20710;-77
2022/09/27 03:35:57;;;;;;;6.22;4.13;;;;;;;15.97;100.00;-24262.31;5078578;28;20616;-77
2022/09/27 03:38:23;;;;;;;6.63;4.10;;;;;;;16.28;100.00;-24271.00;5079569;28;20184;-76
2022/09/27 03:40:48;;;;;;;7.82;4.15;;;;;;;16.10;100.00;-24265.81;5077929;28;20617;-79
2022/09/27 03:43:14;;;;;;;5.57;3.65;;;;;;;16.15;100.00;-24267.22;5067580;28;20521;-79
2022/09/27 03:45:41;;;;;;;7.03;4.80;;;;;;;15.93;100.00;-24261.22;5078712;28;20625;-76
2022/09/27 03:48:07;;;;;;;6.18;4.10;;;;;;;16.23;100.00;-24269.47;5077396;28;20679;-78
2022/09/27 03:50:32;;;;;;;6.65;4.47;;;;;;;16.27;100.00;-24270.59;5077799;28;20374;-76
2022/09/27 03:52:58;;;;;;;6.07;4.53;;;;;;;16.22;100.00;-24269.19;5078292;28;20208;-75
2022/09/27 03:55:23;;;;;;;8.48;4.97;;;;;;;16.19;100.00;-24268.34;5078939;28;20632;-78
2022/09/27 03:57:49;;;;;;;6.28;4.05;;;;;;;16.11;100.00;-24266.25;5059892;28;20182;-79
2022/09/27 04:00:15;;;;;;;6.78;5.25;;;;;;;15.90;100.00;-24260.38;5066849;28;20266;-77
2022/09/27 04:02:41;;;;;;;9.57;5.13;;;;;;;15.93;100.00;-24261.06;5078476;28;20204;-76
2022/09/27 04:05:07;;;;;;;7.78;4.93;;;;;;;16.22;100.00;-24269.19;5076981;28;20197;-78
2022/09/27 04:07:32;;;;;;;6.05;4.20;;;;;;;15.91;100.00;-24260.78;5077440;28;20181;-76
2022/09/27 04:09:58;;;;;;;8.18;4.82;;;;;;;15.88;100.00;-24259.81;5077612;28;21040;-76
2022/09/27 04:12:23;;;;;;;6.40;4.35;;;;;;;16.18;100.00;-24268.22;5078257;28;20234;-78
2022/09/27 04:14:48;;;;;;;8.85;4.90;;;;;;;15.97;100.00;-24262.19;5064387;28;20260;-75
2022/09/27 04:17:14;;;;;;;6.75;4.68;;;;;;;15.95;100.00;-24261.63;5077883;28;20191;-79
2022/09/27 04:19:39;;;;;;;7.40;4.63;;;;;;;16.28;100.00;-24270.84;5078574;28;20172;-80
2022/09/27 04:22:05;;;;;;;6.90;4.65;;;;;;;16.35;100.00;-24272.81;5060097;28;20218;-77
2022/09/27 04:24:30;;;;;;;6.28;4.05;;;;;;;15.90;100.00;-24260.38;5055581;28;20178;-79
2022/09/27 04:26:56;;;;;;;7.38;4.72;;;;;;;16.14;100.00;-24267.09;5056356;28;20292;-77
2022/09/27 04:29:21;;;;;;;7.00;4.45;;;;;;;16.17;100.00;-24267.78;5057583;28;20182;-76
2022/09/27 04:31:47;;;;;;;6.80;4.30;;;;;;;16.31;100.00;-24271.69;5056416;28;20656;-77
2022/09/27 04:34:12;;;;;;;8.10;4.45;;;;;;;16.21;100.00;-24269.03;5057241;28;20260;-76
2022/09/27 04:36:37;;;;;;;6.32;4.32;;;;;;;16.40;100.00;-24274.06;5079531;28;20656;-78
2022/09/27 04:39:05;;;;;;;7.75;5.07;;;;;;;16.64;100.00;-24280.78;5056616;28;20500;-77
2022/09/27 04:41:31;;;;;;;7.57;4.50;;;;;;;16.47;100.00;-24276.16;5055028;28;20182;-80
2022/09/27 04:43:59;;;;;;;7.60;4.63;;;;;;;16.62;100.00;-24280.38;5056525;28;20198;-75
2022/09/27 04:46:24;;;;;;;8.82;4.97;;;;;;;16.63;100.00;-24280.50;5057352;28;20206;-76
2022/09/27 04:48:50;;;;;;;7.10;4.20;;;;;;;16.35;100.00;-24272.97;5055395;28;20642;-76
2022/09/27 04:51:16;;;;;;;7.53;4.53;;;;;;;16.59;100.00;-24279.53;5057601;28;20184;-62
2022/09/27 04:53:43;;;;;;;8.45;4.55;;;;;;;16.65;100.00;-24281.22;5055777;28;20190;-64
2022/09/27 04:56:09;;;;;;;7.53;4.90;;;;;;;16.68;100.00;-24282.03;5056370;28;20257;-63
2022/09/27 04:58:35;;;;;;;6.25;4.50;;;;;;;16.83;100.00;-24285.97;5056460;28;20182;-63
2022/09/27 05:01:02;;;;;;;8.05;4.85;;;;;;;17.12;100.00;-24294.06;5056131;28;20556;-68
2022/09/27 05:03:29;;;;;;;6.72;4.10;;;;;;;16.93;100.00;-24288.75;5056446;28;20334;-65
2022/09/27 05:05:55;;;;;;;9.07;4.20;;;;;;;17.03;100.00;-24291.53;5056918;28;20182;-64
2022/09/27 05:08:21;;;;;;;8.70;4.70;;;;;;;17.20;100.00;-24296.44;5056872;28;20179;-66
2022/09/27 05:10:47;;;;;;;6.68;4.32;;;;;;;16.98;100.00;-24290.28;5055847;28;20185;-63
2022/09/27 05:13:13;;;;;;;7.88;5.10;;;;;;;17.10;100.00;-24293.50;5055920;28;20464;-63
2022/09/27 05:15:39;;;;;;;7.22;4.45;;;;;;;17.59;100.00;-24307.03;5056779;28;20223;-65
2022/09/27 05:18:06;;;;;;;7.10;4.40;;;;;;;17.67;100.00;-24309.41;5056414;28;20178;-63
2022/09/27 05:20:32;;;;;;;8.63;4.60;;;;;;;17.61;100.00;-24307.59;5056501;28;20235;-65
2022/09/27 05:22:57;;;;;;;6.57;4.15;;;;;;;18.08;100.00;-24320.56;5074526;28;20224;-64
2022/09/27 05:25:23;;;;;;;8.25;4.40;;;;;;;18.01;100.00;-24318.75;5076182;28;20601;-66
2022/09/27 05:27:50;;;;;;;7.20;4.60;;;;;;;18.27;100.00;-24325.88;5077049;28;20177;-63
2022/09/27 05:30:15;;;;;;;6.97;4.20;;;;;;;18.24;100.00;-24324.88;5076983;28;20199;-64
2022/09/27 05:32:48;;;;;;;8.10;4.72;;;;;;;17.78;100.00;-24312.34;5076435;28;20193;-65
2022/09/27 05:35:13;;;;;;;5.97;3.85;;;;;;;18.08;100.00;-24320.72;5076703;28;20292;-66
2022/09/27 05:37:39;;;;;;;8.82;4.13;;;;;;;17.84;100.00;-24313.88;5076704;28;20253;-65
2022/09/27 05:40:06;;;;;;;7.53;4.25;;;;;;;18.27;100.00;-24325.88;5076263;28;20189;-63
2022/09/27 05:42:32;;;;;;;6.38;4.15;;;;;;;18.34;100.00;-24327.81;5075770;28;20698;-66
2022/09/27 05:44:58;;;;;;;8.38;4.43;;;;;;;18.47;100.00;-24331.44;5075393;28;21243;-65
2022/09/27 05:47:24;;;;;;;8.13;4.15;;;;;;;18.36;100.00;-24328.38;5076357;28;20174;-64
2022/09/27 05:49:50;;;;;;;6.03;3.97;;;;;;;18.14;100.00;-24322.25;5075829;28;20187;-66
2022/09/27 05:52:16;;;;;;;6.60;3.97;;;;;;;18.29;100.00;-24326.28;5077123;28;20212;-66
2022/09/27 05:54:42;;;;;;;5.78;4.38;;;;;;;18.83;100.00;-24341.19;5077648;28;20655;-67
2022/09/27 05:57:08;;;;;;;8.77;4.35;;;;;;;18.08;100.00;-24320.56;5080166;28;20170;-65
2022/09/27 05:59:33;;;;;;;10.52;5.13;;;;;;;18.74;100.00;-24338.69;5079200;28;20170;-63
2022/09/27 06:01:59;;;;;;;8.88;5.28;;;;;;;18.46;100.00;-24331.00;5079966;28;20192;-64
2022/09/27 06:04:24;;;;;;;10.77;6.10;;;;;;;18.45;100.00;-24330.88;5080146;28;20170;-64
2022/09/27 06:06:50;;;;;;;8.35;4.78;;;;;;;18.91;100.00;-24343.56;5079414;28;20209;-66
2022/09/27 06:09:16;;;;;;;7.53;5.00;;;;;;;18.78;100.00;-24339.78;5080399;28;20200;-64
2022/09/27 06:11:44;;;;;;;9.13;5.90;;;;;;;18.52;100.00;-24332.69;5079016;28;20217;-66
2022/09/27 06:14:11;;;;;;;11.35;6.88;;;;;;;18.62;100.00;-24335.34;5079902;28;20170;-65
2022/09/27 06:16:36;;;;;;;10.68;5.00;;;;;;;18.94;100.00;-24344.38;5080443;28;20216;-64
2022/09/27 06:19:03;;;;;;;8.43;5.13;;;;;;;18.61;100.00;-24335.19;5079252;28;20544;-65
2022/09/27 06:21:30;;;;;;;8.18;4.95;;;;;;;18.93;100.00;-24343.97;5079391;28;20217;-64
2022/09/27 06:23:56;;;;;;;9.07;4.60;;;;;;;19.52;100.00;-24360.25;5079987;28;20173;-66
2022/09/27 06:26:21;;;;;;;8.52;5.10;;;;;;;19.70;100.00;-24365.25;5077586;28;20597;-66
2022/09/27 06:28:47;;;;;;;9.73;5.22;;;;;;;19.66;100.00;-24364.00;5079370;28;20174;-63
2022/09/27 06:31:13;;;;;;;10.63;4.72;;;;;;;19.99;100.00;-24373.19;5077700;28;20655;-64
2022/09/27 06:33:38;;;;;;;9.75;5.20;;;;;;;19.80;100.00;-24367.91;5077047;28;20258;-63
2022/09/27 06:36:05;;;;;;;7.75;4.75;;;;;;;19.93;100.00;-24371.38;5076201;28;20180;-63
2022/09/27 06:38:32;;;;;;;5.97;4.25;;;;;;;19.96;100.00;-24372.34;5065387;28;20788;-63
2022/09/27 06:41:05;;;;;;;8.57;4.50;;;;;;;20.11;100.00;-24376.38;5064593;28;20177;-65
2022/09/27 06:43:33;;;;;;;6.70;4.20;;;;;;;20.19;100.00;-24378.59;5074871;28;20193;-63
2022/09/27 06:46:04;;;;;;;7.57;4.47;;;;;;;19.45;100.00;-24358.31;5066493;28;20615;-63
2022/09/27 06:48:30;;;;;;;8.07;4.35;;;;;;;19.59;100.00;-24362.06;5079526;28;20212;-63
2022/09/27 06:50:56;;;;;;;7.90;4.70;;;;;;;19.46;100.00;-24358.44;5079374;28;20807;-63
2022/09/27 06:53:22;;;;;;;6.05;3.90;;;;;;;19.51;100.00;-24359.84;5078858;28;20209;-63
2022/09/27 06:55:48;;;;;;;8.30;3.70;;;;;;;19.19;100.00;-24351.22;5078336;28;20185;-64
2022/09/27 07:00:58;;;;;;;6.78;4.07;;;;;;;19.61;100.00;-24362.63;5078864;28;20195;-64
2022/09/27 07:03:30;;;;;;;8.52;3.67;;;;;;;19.32;100.00;-24354.69;5079703;28;20178;-63
2022/09/27 07:06:01;;;;;;;8.45;3.85;;;;;;;19.75;100.00;-24366.66;5077967;28;20242;-64
2022/09/27 07:08:27;;;;;;;5.88;3.60;;;;;;;20.55;100.00;-24388.47;5079040;28;20262;-65
2022/09/27 07:11:14;;;;;;;6.50;3.83;;;;;;;20.44;100.00;-24385.53;5079365;28;20178;-65
2022/09/27 07:13:41;;;;;;;7.80;3.95;;;;;;;20.30;100.00;-24381.66;5077468;28;20369;-63
2022/09/27 07:16:09;;;;;;;7.45;3.75;;;;;;;20.94;100.00;-24399.28;5079529;28;20613;-64
2022/09/27 07:18:34;;;;;;;5.35;3.35;;;;;;;21.01;100.00;-24401.09;5078027;28;20668;-65
2022/09/27 07:21:00;;;;;;;3.90;3.08;;;;;;;21.42;100.00;-24412.31;5079094;28;20181;-64
2022/09/27 07:23:26;;;;;;;4.95;3.17;;;;;;;21.34;100.00;-24410.09;5096659;28;20181;-63
2022/09/27 07:25:51;;;;;;;6.93;3.47;;;;;;;21.38;100.00;-24411.22;5093429;28;20174;-63
2022/09/27 07:28:18;;;;;;;4.97;3.33;;;;;;;21.07;100.00;-24402.88;5093455;28;20153;-64
2022/09/27 07:30:44;;;;;;;7.38;4.10;;;;;;;21.50;100.00;-24414.53;5093128;28;20264;-63
2022/09/27 07:33:10;;;;;;;6.18;3.75;;;;;;;21.58;100.00;-24416.75;5093229;28;20225;-63
2022/09/27 07:35:40;;;;;;;6.15;4.05;;;;;;;22.07;100.00;-24430.03;5093264;28;20177;-65
2022/09/27 07:38:09;;;;;;;6.85;3.63;;;;;;;21.61;100.00;-24417.59;5092826;28;20262;-65
2022/09/27 07:40:36;;;;;;;5.22;3.83;;;;;;;20.86;100.00;-24397.06;5092598;28;20682;-63
2022/09/27 07:43:01;;;;;;;5.65;3.58;;;;;;;21.65;100.00;-24418.69;5092703;28;20169;-62
2022/09/27 07:45:27;;;;;;;8.98;3.90;;;;;;;22.19;100.00;-24433.38;5092694;28;20637;-65
2022/09/27 07:47:53;;;;;;;5.28;3.60;;;;;;;22.13;100.00;-24431.72;5092889;28;20555;-64
2022/09/27 07:50:19;;;;;;;5.63;3.35;;;;;;;22.55;100.00;-24443.34;5092983;28;20191;-62
2022/09/27 07:52:49;;;;;;;5.35;3.60;;;;;;;22.86;100.00;-24451.78;5092229;28;20201;-61
2022/09/27 07:55:16;;;;;;;6.88;3.53;;;;;;;22.55;100.00;-24443.34;5092351;28;20162;-62
2022/09/27 07:57:44;;;;;;;4.43;3.33;;;;;;;23.07;100.00;-24457.44;5092765;28;20318;-65
2022/09/27 08:00:13;;;;;;;5.75;3.67;;;;;;;22.51;100.00;-24442.22;5092339;28;20486;-64
2022/09/27 08:02:40;;;;;;;7.65;3.83;;;;;;;22.98;100.00;-24454.94;5092448;28;20176;-65
2022/09/27 08:05:06;;;;;;;5.50;3.50;;;;;;;22.39;100.00;-24438.91;5092622;28;20184;-65
2022/09/27 08:07:31;;;;;;;6.68;3.28;;;;;;;22.62;100.00;-24445.25;5092747;28;20177;-64
2022/09/27 08:09:57;;;;;;;5.18;4.00;;;;;;;22.08;100.00;-24430.47;5093395;28;20166;-64
2022/09/27 08:12:22;;;;;;;5.50;3.85;;;;;;;21.52;100.00;-24415.22;5092423;28;20201;-65
2022/09/27 08:14:48;;;;;;;5.38;3.42;;;;;;;21.09;100.00;-24403.31;5092044;28;20249;-63
2022/09/27 08:17:13;;;;;;;4.55;3.60;;;;;;;21.04;100.00;-24402.06;5091308;28;20185;-63
2022/09/27 08:19:40;;;;;;;5.18;3.70;;;;;;;21.27;100.00;-24408.16;5092853;28;20181;-65
2022/09/27 08:22:08;;;;;;;5.10;3.72;;;;;;;21.32;100.00;-24409.69;5092251;28;20221;-65
2022/09/27 08:24:34;;;;;;;6.38;3.88;;;;;;;21.84;100.00;-24423.94;5092329;28;20174;-64
2022/09/27 08:27:01;;;;;;;6.75;3.95;;;;;;;22.44;100.00;-24440.28;5092529;28;20196;-65
2022/09/27 08:29:26;;;;;;;7.07;3.40;;;;;;;22.23;100.00;-24434.47;5091902;28;20282;-62
2022/09/27 08:31:53;;;;;;;4.22;3.28;;;;;;;22.26;100.00;-24435.31;5091840;28;20284;-65
2022/09/27 08:34:22;;;;;;;5.00;3.22;;;;;;;22.50;100.00;-24441.81;5092155;28;20345;-63
2022/09/27 08:36:47;;;;;;;4.43;3.13;;;;;;;22.97;100.00;-24454.66;5091932;28;20180;-62
2022/09/27 08:39:13;;;;;;;6.22;4.35;;;;;;;23.16;100.00;-24459.94;5091943;28;20177;-62
2022/09/27 08:41:45;;;;;;;4.70;3.42;;;;;;;23.41;100.00;-24466.69;5091240;28;20185;-64
2022/09/27 08:44:19;;;;;;;5.50;3.60;;;;;;;23.52;100.00;-24469.72;5081743;28;20199;-64
2022/09/27 08:47:03;;;;;;;8.38;4.50;;;;;;;23.66;100.00;-24473.59;5073149;28;20180;-64
2022/09/27 08:49:35;;;;;;;5.45;3.60;;;;;;;23.58;100.00;-24471.53;5096361;28;20673;-65
2022/09/27 08:52:05;;;;;;;5.60;3.25;;;;;;;23.80;100.00;-24477.31;5091628;28;20505;-66
2022/09/27 08:54:34;;;;;;;5.50;3.75;;;;;;;24.00;100.00;-24482.97;5091929;28;20170;-65
2022/09/27 08:57:04;;;;;;;5.07;3.20;;;;;;;24.04;100.00;-24483.94;5091637;28;20188;-65
2022/09/27 08:59:38;;;;;;;4.70;3.35;;;;;;;24.71;100.00;-24502.16;5073937;28;20687;-64
2022/09/27 09:02:10;;;;;;;5.47;3.30;;;;;;;24.75;100.00;-24503.25;5091989;28;20185;-64
2022/09/27 09:04:39;;;;;;;5.75;3.33;;;;;;;24.99;100.00;-24510.00;5091472;28;20219;-65
2022/09/27 09:07:14;;;;;;;4.40;3.10;;;;;;;25.19;100.00;-24515.38;5091319;28;20521;-65
2022/09/27 09:09:53;;;;;;;5.18;3.20;;;;;;;25.32;100.00;-24518.81;5091595;28;20165;-62
2022/09/27 09:12:53;;;;;;;5.35;3.63;;;;;;;25.50;100.00;-24523.75;5091588;28;20195;-63
2022/09/27 09:15:53;;;;;;;4.55;3.33;;;;;;;25.31;100.00;-24518.53;5073606;28;20280;-65
2022/09/27 09:18:42;;;;;;;4.15;3.30;;;;;;;25.07;100.00;-24512.19;5091792;28;20177;-64
2022/09/27 09:21:19;;;;;;;4.65;3.20;;;;;;;25.32;100.00;-24518.81;5091708;28;20559;-64
2022/09/27 09:23:56;;;;;;;4.20;3.00;;;;;;;25.43;100.00;-24521.84;5091837;28;20174;-66
2022/09/27 09:26:37;;;;;;;4.50;3.17;;;;;;;24.79;100.00;-24504.34;5089819;28;20176;-63
2022/09/27 09:29:20;;;;;;;6.13;3.90;;;;;;;25.17;100.00;-24514.69;5093818;28;20176;-64
2022/09/27 09:32:14;;;;;;;4.43;3.20;;;;;;;25.61;100.00;-24526.66;5095191;28;20258;-63
2022/09/27 09:34:50;;;;;;;3.85;2.90;;;;;;;25.92;98.55;-24535.19;5095141;28;20169;-68
2022/09/27 09:37:37;;;;;;;4.80;3.15;;;;;;;25.94;96.59;-24535.72;5094927;28;20165;-66
2022/09/27 09:40:21;;;;;;;4.47;3.15;;;;;;;25.16;99.90;-24514.53;5094782;28;20157;-64
2022/09/27 09:43:14;;;;;;;6.65;3.40;;;;;;;24.81;100.00;-24505.03;5094683;28;20169;-63
2022/09/27 09:45:47;;;;;;;4.25;2.72;;;;;;;24.59;100.00;-24498.97;5081883;28;20241;-64
2022/09/27 09:48:24;;;;;;;3.83;3.08;;;;;;;24.02;100.00;-24483.53;5094574;28;20162;-65
2022/09/27 09:50:53;;;;;;;4.18;3.17;;;;;;;23.85;100.00;-24478.69;5094487;28;20176;-64
2022/09/27 09:53:35;;;;;;;4.53;2.97;;;;;;;24.35;100.00;-24492.50;5094525;28;20197;-63
2022/09/27 09:56:35;;;;;;;3.75;2.90;;;;;;;23.85;100.00;-24478.69;5094423;28;20189;-64
2022/09/27 09:59:24;;;;;;;4.07;2.90;;;;;;;23.63;100.00;-24472.91;5039735;28;20542;-62
2022/09/27 10:01:51;;;;;;;8.38;3.15;;;;;;;23.48;100.00;-24468.63;5094566;28;20176;-65
2022/09/27 10:04:22;;;;;;;4.93;3.13;;;;;;;23.64;100.00;-24473.19;5094856;28;20226;-62
2022/09/27 10:06:48;;;;;;;5.53;3.10;;;;;;;23.29;100.00;-24463.50;5094516;28;20602;-63
2022/09/27 10:09:16;;;;;;;4.35;3.20;;;;;;;23.35;100.00;-24465.19;5094371;28;20234;-64
2022/09/27 10:11:44;;;;;;;5.38;3.60;;;;;;;22.68;100.00;-24446.78;5076468;28;20246;-64
2022/09/27 10:14:13;;;;;;;5.65;3.70;;;;;;;22.72;100.00;-24448.03;5094029;28;20254;-62
2022/09/27 10:16:42;;;;;;;7.25;3.60;;;;;;;22.79;100.00;-24449.97;5094564;28;20170;-64
2022/09/27 10:19:08;;;;;;;4.18;3.10;;;;;;;22.94;100.00;-24453.84;5094413;28;20172;-64
2022/09/27 10:21:38;;;;;;;4.80;3.45;;;;;;;22.85;100.00;-24451.50;5094302;28;20217;-62
2022/09/27 10:24:11;;;;;;;5.10;3.17;;;;;;;23.00;100.00;-24455.50;5094245;28;20188;-65
2022/09/27 10:26:38;;;;;;;4.43;3.05;;;;;;;23.19;100.00;-24460.88;5093019;28;20268;-66
2022/09/27 10:29:35;;;;;;;4.53;3.47;;;;;;;23.10;100.00;-24458.41;5093599;28;20216;-62
2022/09/27 10:32:03;;;;;;;5.95;3.35;;;;;;;23.00;100.00;-24455.63;5073336;28;20244;-64
2022/09/27 10:34:36;;;;;;;5.05;3.17;;;;;;;23.21;100.00;-24461.31;5094106;28;20173;-61
2022/09/27 10:37:11;;;;;;;4.65;3.35;;;;;;;23.19;100.00;-24460.75;5094563;28;20171;-65
2022/09/27 10:39:37;;;;;;;7.60;3.25;;;;;;;23.03;100.00;-24456.34;5093835;28;20173;-64
2022/09/27 10:42:35;;;;;;;4.43;3.05;;;;;;;23.19;100.00;-24460.88;5093975;28;20169;-65
2022/09/27 10:45:29;;;;;;;4.60;2.95;;;;;;;23.64;100.00;-24473.03;5094339;28;20178;-63
2022/09/27 10:47:56;;;;;;;6.88;4.18;;;;;;;23.78;100.00;-24477.03;5094015;28;20180;-63
2022/09/27 10:50:31;;;;;;;5.72;3.22;;;;;;;24.24;100.00;-24489.31;5094553;28;20559;-65
2022/09/27 10:53:14;;;;;;;5.32;3.95;;;;;;;24.56;100.00;-24498.28;5093513;28;20690;-65
2022/09/27 10:55:41;;;;;;;6.07;3.60;;;;;;;24.61;100.00;-24499.53;5094178;28;20244;-63
2022/09/27 10:58:20;;;;;;;5.53;3.88;;;;;;;25.02;100.00;-24510.69;5093894;28;20303;-65
2022/09/27 11:01:02;;;;;;;6.07;3.72;;;;;;;24.72;99.59;-24502.41;5094321;28;20162;-63
2022/09/27 11:03:35;;;;;;;5.60;3.30;;;;;;;24.70;97.66;-24502.00;5094322;28;20628;-65
2022/09/27 11:06:18;;;;;;;5.03;3.58;;;;;;;24.42;100.00;-24494.28;5094186;28;20559;-63
2022/09/27 11:08:47;;;;;;;4.78;3.17;;;;;;;24.57;100.00;-24498.56;5093224;28;20188;-63
2022/09/27 11:11:12;;;;;;;5.05;3.70;;;;;;;24.99;100.00;-24510.00;5093653;28;20169;-62
2022/09/27 11:13:39;;;;;;;5.05;3.30;;;;;;;24.82;98.27;-24505.31;5093889;28;20338;-62
2022/09/27 11:16:35;;;;;;;4.88;3.50;;;;;;;25.53;95.80;-24524.72;5093569;28;20204;-61
2022/09/27 11:19:38;;;;;;;5.57;3.47;;;;;;;25.39;95.34;-24520.88;5094161;28;20178;-62
2022/09/27 11:22:29;;;;;;;4.53;3.20;;;;;;;25.59;93.88;-24526.25;5094003;28;20228;-60
2022/09/27 11:25:20;;;;;;;4.53;3.00;;;;;;;25.39;96.46;-24520.88;5093679;28;20166;-63
2022/09/27 11:28:08;;;;;;;5.10;3.22;;;;;;;25.17;96.11;-24514.81;5093759;28;20173;-62
2022/09/27 11:31:02;;;;;;;5.43;3.42;;;;;;;25.64;93.83;-24527.47;5094326;28;20176;-61
2022/09/27 11:33:57;;;;;;;5.40;3.25;;;;;;;25.67;92.71;-24528.31;5093283;28;20205;-62
2022/09/27 11:36:32;;;;;;;4.72;3.17;;;;;;;25.74;93.63;-24530.22;5093265;28;20163;-62
2022/09/27 11:39:00;;;;;;;5.95;3.53;;;;;;;25.90;92.11;-24534.63;5093154;28;20230;-62